Caneyville, Kentucky
Current Conditions -  °F | °C
As of 4:53 PM on Friday 19 Dec 2014 (Local Time) from KBWG Reporting Station
Clear Clear  
Wind Chill: 37°   Ceiling: Unl
Heat Index: 37°   Visibility: 10mi
Dew Point: 24°   Wind: 3mph
Humidity: 59%   Direction: 30°NNE
Pressure: 30.26"   Gusts: NA
Location:  37.42°N, 86.49°W
Report Text: KBWG 192253Z AUTO 03003KT 10SM CLR 03/M04 A3026 RMK AO2 SLP251 T00281044
Loading
Personal Weather Stations






























Interactive Weather Map New forecast layout! Learn more

10-Day Weather Forecast

Advertisements
Track Severe Weather on mobile